Have a Safe July 4th! 

Flight Track Log - Related Links

Times and Time Zones

All times are in EDT time to prevent confusion due to time zone crossing. See the VH-YNN flight status page for this flight to view local times or setup timezone preferences in your user account.

Time Position Orientation Groundspeed Altitude Reporting Facility
EDT Latitude Longitude Course Direction KTS MPH feet Rate Location/Type
Fri 06:51:15 PM -34.7919 138.6389 17° North 87 100 300  Level Aus ATC (RADAR)
Fri 06:52:04 PM -34.7746 138.6454 17° North 81 93 1,100 649 Climbing Aus ATC (RADAR)
Fri 06:52:29 PM -34.7697 138.6317 294° West 97 112 1,100 -60 Level Aus ATC (RADAR)
Fri 06:53:44 PM -34.7830 138.5870 250° West 113 130 1,000 -57 Descending Aus ATC (RADAR)
Fri 06:54:14 PM -34.7809 138.5707 279° West 102 117 1,000  Level Aus ATC (RADAR)
Fri 06:54:49 PM -34.7707 138.5550 308° West 100 115 1,000  Level Aus ATC (RADAR)
Fri 06:55:34 PM -34.7576 138.5349 308° West 102 117 1,000  Level Aus ATC (RADAR)
Fri 06:56:04 PM -34.7480 138.5221 312° West 101 116 1,000 600 Level Aus ATC (RADAR)
Fri 06:56:54 PM -34.7284 138.5150 343° North 87 100 1,800 880 Climbing Aus ATC (RADAR)
Fri 06:57:19 PM -34.7191 138.5104 338° Northwest 86 99 2,100 600 Climbing Aus ATC (RADAR)
Fri 06:57:54 PM -34.7049 138.5045 341° North 91 105 2,400 218 Climbing Aus ATC (RADAR)
Fri 06:59:09 PM -34.6707 138.4918 343° North 105 121 2,500 57 Climbing Aus ATC (RADAR)
Fri 06:59:40 PM -34.6570 138.4859 341° North 105 121 2,500 364 Level Aus ATC (RADAR)
Fri 07:00:15 PM -34.6411 138.4806 345° North 100 115 2,900 684 Climbing Aus ATC (RADAR)
Fri 07:00:59 PM -34.6206 138.4833 North 99 114 3,400 759 Climbing Aus ATC (RADAR)
Fri 07:01:34 PM -34.6070 138.4935 32° Northeast 99 114 3,900 750 Climbing Aus ATC (RADAR)
Fri 07:02:19 PM -34.5885 138.5023 21° North 98 113 4,400 686 Climbing Aus ATC (RADAR)
Fri 07:02:44 PM -34.5778 138.5052 13° North 96 110 4,700 692 Climbing Aus ATC (RADAR)
Fri 07:04:03 PM -34.5431 138.5154 14° North 97 112 5,600 629 Climbing Aus ATC (RADAR)
Fri 07:04:29 PM -34.5317 138.5197 17° North 102 117 5,800 590 Climbing Aus ATC (RADAR)
Fri 07:05:04 PM -34.5150 138.5238 12° North 105 121 6,200 525 Climbing Aus ATC (RADAR)
Fri 07:05:49 PM -34.4932 138.5295 12° North 108 124 6,500 228 Climbing Aus ATC (RADAR)
Fri 07:06:23 PM -34.4742 138.5285 358° North 118 136 6,500  Level Aus ATC (RADAR)
Fri 07:07:14 PM -34.4521 138.5110 327° Northwest 114 131 6,500 -83 Level Aus ATC (RADAR)
Fri 07:07:35 PM -34.4426 138.5048 332° Northwest 115 132 6,400 -71 Descending Aus ATC (RADAR)
Fri 07:08:39 PM -34.4129 138.4846 331° Northwest 113 130 6,400 64 Level Aus ATC (RADAR)
Fri 07:09:09 PM -34.3969 138.4825 354° North 115 132 6,500 133 Climbing Aus ATC (RADAR)
Fri 07:09:24 PM -34.3889 138.4809 350° North 116 133 6,500  Level Aus ATC (RADAR)
Fri 07:11:48 PM -34.3345 138.4618 344° North 6,400 -30 Descending Aus ATC (Calculated)
Fri 07:12:42 PM -34.2818 138.4435 164° South 6,400  Level Aus ATC (Calculated)
Fri 07:13:00 PM -34.3012 138.4502 344° North  Level FlightAware Approximate
Fri 07:14:00 PM -34.2457 138.4308 344° North  Level FlightAware Approximate
Fri 07:15:00 PM -34.2179 138.4212 344° North  Level FlightAware Approximate
Fri 07:16:00 PM -34.1901 138.4115 344° North  Level FlightAware Approximate
Fri 07:17:00 PM -34.1623 138.4018 344° North  Level FlightAware Approximate
Fri 07:18:00 PM -34.1345 138.3922 344° North  Level FlightAware Approximate
Fri 07:18:35 PM -34.0776 138.3724 164° South 6,400  Level Aus ATC (Calculated)
Fri 07:19:00 PM -34.1068 138.3825 344° North  Level FlightAware Approximate
Fri 07:20:00 PM -34.0382 138.3587 344° North  Level FlightAware Approximate
Fri 07:21:00 PM -34.0104 138.3491 344° North  Level FlightAware Approximate
Fri 07:22:00 PM -33.9826 138.3394 344° North  Level FlightAware Approximate
Fri 07:23:00 PM -33.9548 138.3298 344° North  Level FlightAware Approximate
Fri 07:24:00 PM -33.9271 138.3202 344° North  Level FlightAware Approximate
Fri 07:25:00 PM -33.8993 138.3106 344° North  Level FlightAware Approximate
Fri 07:26:00 PM -33.8715 138.3010 344° North  Level FlightAware Approximate
Fri 07:27:00 PM -33.8437 138.2914 344° North  Level FlightAware Approximate
Fri 07:28:00 PM -33.8159 138.2818 344° North  Level FlightAware Approximate
Fri 07:29:00 PM -33.7881 138.2722 344° North  Level FlightAware Approximate
Fri 07:30:00 PM -33.7603 138.2626 344° North  Level FlightAware Approximate
Fri 07:31:00 PM -33.7325 138.2531 344° North  Level FlightAware Approximate
Fri 07:31:13 PM -33.7200 138.2488 344° North 6,400  Level Aus ATC (Calculated)
Fri 07:33:00 PM -33.6705 138.2318 344° North  Level FlightAware Approximate
Fri 07:34:00 PM -33.6427 138.2222 344° North  Level FlightAware Approximate
Fri 07:35:00 PM -33.6149 138.2127 344° North  Level FlightAware Approximate
Fri 07:36:00 PM -33.5871 138.2031 344° North  Level FlightAware Approximate
Fri 07:37:00 PM -33.5593 138.1936 344° North  Level FlightAware Approximate
Fri 07:38:00 PM -33.5315 138.1841 344° North  Level FlightAware Approximate
Fri 07:39:00 PM -33.5037 138.1745 344° North  Level FlightAware Approximate
Fri 07:40:00 PM -33.4758 138.1650 344° North  Level FlightAware Approximate
Fri 07:41:00 PM -33.4480 138.1555 344° North  Level FlightAware Approximate
Fri 07:42:00 PM -33.4202 138.1460 344° North  Level FlightAware Approximate
Fri 07:43:00 PM -33.3924 138.1365 344° North  Level FlightAware Approximate
Fri 07:44:00 PM -33.3646 138.1270 344° North  Level FlightAware Approximate
Fri 07:45:00 PM -33.3368 138.1176 344° North  Level FlightAware Approximate
Fri 07:46:00 PM -33.3090 138.1081 344° North  Level FlightAware Approximate
Fri 07:47:00 PM -33.2812 138.0986 344° North  Level FlightAware Approximate
Fri 07:48:00 PM -33.2534 138.0891 344° North  Level FlightAware Approximate
Fri 07:49:00 PM -33.2256 138.0797 344° North  Level FlightAware Approximate
Fri 07:50:00 PM -33.1978 138.0702 344° North  Level FlightAware Approximate
Fri 07:51:00 PM -33.1699 138.0608 344° North  Level FlightAware Approximate
Fri 07:52:00 PM -33.1421 138.0513 344° North  Level FlightAware Approximate
Fri 07:53:00 PM -33.1143 138.0419 344° North  Level FlightAware Approximate
Fri 07:54:00 PM -33.0865 138.0325 344° North  Level FlightAware Approximate
Fri 07:55:00 PM -33.0587 138.0230 344° North  Level FlightAware Approximate
Fri 07:56:00 PM -33.0309 138.0136 344° North  Level FlightAware Approximate
Fri 07:57:00 PM -33.0030 138.0042 344° North  Level FlightAware Approximate
Fri 07:58:00 PM -32.9752 137.9948 344° North  Level FlightAware Approximate
Fri 07:59:00 PM -32.9474 137.9854 344° North  Level FlightAware Approximate
Fri 08:00:00 PM -32.9196 137.9760 344° North  Level FlightAware Approximate
Fri 08:01:00 PM -32.8918 137.9666 344° North  Level FlightAware Approximate
Fri 08:02:00 PM -32.8639 137.9572 344° North  Level FlightAware Approximate
Fri 08:03:00 PM -32.8361 137.9479 344° North  Level FlightAware Approximate
Fri 08:04:00 PM -32.8083 137.9385 344° North  Level FlightAware Approximate
Fri 08:05:00 PM -32.7805 137.9291 344° North  Level FlightAware Approximate
Fri 08:06:00 PM -32.7527 137.9198 344° North  Level FlightAware Approximate
Fri 08:06:39 PM -32.7346 137.8155 83° East  Level Aus ATC (Calculated)
Fri 08:07:00 PM -32.7248 137.9104 344° North  Level FlightAware Approximate
Fri 08:08:00 PM -32.7019 137.8409 33° Northeast  Level FlightAware Approximate
Fri 08:09:00 PM -32.6778 137.8598 33° Northeast  Level FlightAware Approximate
Fri 08:10:00 PM -32.6536 137.8786 33° Northeast  Level FlightAware Approximate
Fri 08:11:00 PM -32.6294 137.8974 33° Northeast  Level FlightAware Approximate
Fri 08:12:00 PM -32.6536 137.8786 213° Southwest  Level FlightAware Approximate
Fri 08:13:00 PM -32.6294 137.8974 33° Northeast  Level FlightAware Approximate
Fri 08:14:00 PM -32.6375 137.8733 315° West  Level FlightAware Approximate
Fri 08:15:00 PM -32.6172 137.8489 315° West  Level FlightAware Approximate
Fri 08:16:00 PM -32.5968 137.8245 315° West  Level FlightAware Approximate
Fri 08:17:00 PM -32.5765 137.8001 315° West  Level FlightAware Approximate
Fri 08:18:00 PM -32.5561 137.7757 315° West  Level FlightAware Approximate
Fri 08:19:00 PM -32.5358 137.7513 315° West  Level FlightAware Approximate
Fri 08:20:00 PM -32.5154 137.7270 315° West  Level FlightAware Approximate
Fri 08:21:00 PM -32.5069 137.7168 315° West  Level FlightAware Approximate

Login

Don't have an account? Register now (free) for customized features, flight alerts, and more!